sensor_id;sensor_type;location;lat;lon;timestamp;pressure;altitude;pressure_sealevel;temperature;humidity
72689;BME280;61053;52.166;4.506;2023-10-31T00:00:53;99543.03;;;10.69;100.00
72689;BME280;61053;52.166;4.506;2023-10-31T00:03:20;99539.38;;;10.70;100.00
72689;BME280;61053;52.166;4.506;2023-10-31T00:05:45;99540.34;;;10.78;100.00
72689;BME280;61053;52.166;4.506;2023-10-31T00:08:11;99538.38;;;10.81;100.00
72689;BME280;61053;52.166;4.506;2023-10-31T00:10:37;99540.50;;;10.67;100.00
72689;BME280;61053;52.166;4.506;2023-10-31T00:13:09;99541.63;;;10.74;100.00
72689;BME280;61053;52.166;4.506;2023-10-31T00:15:41;99547.25;;;10.62;100.00
72689;BME280;61053;52.166;4.506;2023-10-31T00:18:07;99548.50;;;10.57;100.00
72689;BME280;61053;52.166;4.506;2023-10-31T00:20:32;99540.91;;;10.63;100.00
72689;BME280;61053;52.166;4.506;2023-10-31T00:22:58;99542.47;;;10.55;100.00
72689;BME280;61053;52.166;4.506;2023-10-31T00:25:24;99541.75;;;10.53;100.00
72689;BME280;61053;52.166;4.506;2023-10-31T00:27:55;99535.16;;;10.48;100.00
72689;BME280;61053;52.166;4.506;2023-10-31T00:30:21;99544.00;;;10.48;100.00
72689;BME280;61053;52.166;4.506;2023-10-31T00:32:46;99541.22;;;10.40;100.00
72689;BME280;61053;52.166;4.506;2023-10-31T00:35:12;99542.03;;;10.31;100.00
72689;BME280;61053;52.166;4.506;2023-10-31T00:37:43;99536.97;;;10.28;100.00
72689;BME280;61053;52.166;4.506;2023-10-31T00:40:12;99541.03;;;10.32;100.00
72689;BME280;61053;52.166;4.506;2023-10-31T00:42:39;99537.69;;;10.40;100.00
72689;BME280;61053;52.166;4.506;2023-10-31T00:45:06;99547.09;;;10.34;100.00
72689;BME280;61053;52.166;4.506;2023-10-31T00:47:35;99556.22;;;10.41;100.00
72689;BME280;61053;52.166;4.506;2023-10-31T00:50:01;99556.38;;;10.40;100.00
72689;BME280;61053;52.166;4.506;2023-10-31T00:52:27;99559.47;;;10.45;100.00
72689;BME280;61053;52.166;4.506;2023-10-31T00:54:53;99576.47;;;10.44;100.00
72689;BME280;61053;52.166;4.506;2023-10-31T00:57:18;99575.50;;;10.45;100.00
72689;BME280;61053;52.166;4.506;2023-10-31T00:59:44;99576.19;;;10.56;100.00
72689;BME280;61053;52.166;4.506;2023-10-31T01:02:10;99579.88;;;10.65;100.00
72689;BME280;61053;52.166;4.506;2023-10-31T01:04:37;99580.41;;;10.69;100.00
72689;BME280;61053;52.166;4.506;2023-10-31T01:07:03;99580.72;;;10.66;100.00
72689;BME280;61053;52.166;4.506;2023-10-31T01:09:29;99586.47;;;10.61;100.00
72689;BME280;61053;52.166;4.506;2023-10-31T01:11:55;99582.38;;;10.57;100.00
72689;BME280;61053;52.166;4.506;2023-10-31T01:14:21;99591.34;;;10.46;100.00
72689;BME280;61053;52.166;4.506;2023-10-31T01:16:46;99587.13;;;10.53;100.00
72689;BME280;61053;52.166;4.506;2023-10-31T01:19:12;99595.44;;;10.41;100.00
72689;BME280;61053;52.166;4.506;2023-10-31T01:21:37;99606.41;;;10.47;100.00
72689;BME280;61053;52.166;4.506;2023-10-31T01:24:09;99600.06;;;10.48;100.00
72689;BME280;61053;52.166;4.506;2023-10-31T01:26:35;99606.94;;;10.51;100.00
72689;BME280;61053;52.166;4.506;2023-10-31T01:29:01;99611.59;;;10.49;100.00
72689;BME280;61053;52.166;4.506;2023-10-31T01:31:30;99610.63;;;10.50;100.00
72689;BME280;61053;52.166;4.506;2023-10-31T01:33:55;99622.53;;;10.46;100.00
72689;BME280;61053;52.166;4.506;2023-10-31T01:36:27;99614.41;;;10.47;100.00
72689;BME280;61053;52.166;4.506;2023-10-31T01:38:53;99623.84;;;10.51;100.00
72689;BME280;61053;52.166;4.506;2023-10-31T01:41:18;99623.44;;;10.66;100.00
72689;BME280;61053;52.166;4.506;2023-10-31T01:43:44;99628.91;;;10.64;100.00
72689;BME280;61053;52.166;4.506;2023-10-31T01:46:16;99632.81;;;10.70;100.00
72689;BME280;61053;52.166;4.506;2023-10-31T01:48:42;99633.28;;;10.75;100.00
72689;BME280;61053;52.166;4.506;2023-10-31T01:51:09;99643.09;;;10.74;100.00
72689;BME280;61053;52.166;4.506;2023-10-31T01:53:35;99637.03;;;10.53;100.00
72689;BME280;61053;52.166;4.506;2023-10-31T01:56:03;99634.94;;;10.66;100.00
72689;BME280;61053;52.166;4.506;2023-10-31T01:58:34;99638.72;;;10.54;100.00
72689;BME280;61053;52.166;4.506;2023-10-31T02:01:04;99648.53;;;10.53;100.00
72689;BME280;61053;52.166;4.506;2023-10-31T02:03:31;99645.34;;;10.60;100.00
72689;BME280;61053;52.166;4.506;2023-10-31T02:05:58;99647.44;;;10.56;100.00
72689;BME280;61053;52.166;4.506;2023-10-31T02:08:26;99642.00;;;10.77;100.00
72689;BME280;61053;52.166;4.506;2023-10-31T02:10:52;99649.44;;;10.73;100.00
72689;BME280;61053;52.166;4.506;2023-10-31T02:13:18;99650.13;;;10.75;100.00
72689;BME280;61053;52.166;4.506;2023-10-31T02:15:47;99649.00;;;10.78;100.00
72689;BME280;61053;52.166;4.506;2023-10-31T02:18:14;99654.47;;;10.76;100.00
72689;BME280;61053;52.166;4.506;2023-10-31T02:20:40;99651.25;;;10.73;100.00
72689;BME280;61053;52.166;4.506;2023-10-31T02:23:07;99656.72;;;10.71;100.00
72689;BME280;61053;52.166;4.506;2023-10-31T02:25:33;99651.56;;;10.80;100.00
72689;BME280;61053;52.166;4.506;2023-10-31T02:27:59;99656.59;;;10.63;100.00
72689;BME280;61053;52.166;4.506;2023-10-31T02:30:26;99649.81;;;10.49;100.00
72689;BME280;61053;52.166;4.506;2023-10-31T02:32:55;99660.50;;;10.49;100.00
72689;BME280;61053;52.166;4.506;2023-10-31T02:35:27;99659.91;;;10.46;100.00
72689;BME280;61053;52.166;4.506;2023-10-31T02:38:01;99661.63;;;10.47;100.00
72689;BME280;61053;52.166;4.506;2023-10-31T02:40:27;99664.69;;;10.42;100.00
72689;BME280;61053;52.166;4.506;2023-10-31T02:42:53;99673.84;;;10.49;100.00
72689;BME280;61053;52.166;4.506;2023-10-31T02:45:18;99666.22;;;10.35;100.00
72689;BME280;61053;52.166;4.506;2023-10-31T02:47:44;99675.59;;;10.29;100.00
72689;BME280;61053;52.166;4.506;2023-10-31T02:50:10;99675.13;;;10.24;100.00
72689;BME280;61053;52.166;4.506;2023-10-31T02:52:36;99680.81;;;10.31;100.00
72689;BME280;61053;52.166;4.506;2023-10-31T02:55:01;99678.13;;;10.31;100.00
72689;BME280;61053;52.166;4.506;2023-10-31T02:57:27;99675.06;;;10.35;100.00
72689;BME280;61053;52.166;4.506;2023-10-31T02:59:53;99683.66;;;10.18;100.00
72689;BME280;61053;52.166;4.506;2023-10-31T03:02:18;99674.78;;;10.08;100.00
72689;BME280;61053;52.166;4.506;2023-10-31T03:04:44;99674.47;;;10.01;100.00
72689;BME280;61053;52.166;4.506;2023-10-31T03:07:10;99677.72;;;10.05;100.00
72689;BME280;61053;52.166;4.506;2023-10-31T03:09:36;99690.19;;;10.04;100.00
72689;BME280;61053;52.166;4.506;2023-10-31T03:12:01;99691.06;;;10.05;100.00
72689;BME280;61053;52.166;4.506;2023-10-31T03:14:28;99684.34;;;10.10;100.00
72689;BME280;61053;52.166;4.506;2023-10-31T03:16:54;99687.72;;;10.12;100.00
72689;BME280;61053;52.166;4.506;2023-10-31T03:19:20;99693.28;;;10.00;100.00
72689;BME280;61053;52.166;4.506;2023-10-31T03:21:45;99690.47;;;10.01;100.00
72689;BME280;61053;52.166;4.506;2023-10-31T03:24:11;99685.47;;;10.08;100.00
72689;BME280;61053;52.166;4.506;2023-10-31T03:26:39;99700.19;;;10.02;100.00
72689;BME280;61053;52.166;4.506;2023-10-31T03:29:13;99696.25;;;10.06;100.00
72689;BME280;61053;52.166;4.506;2023-10-31T03:31:47;99704.97;;;10.08;100.00
72689;BME280;61053;52.166;4.506;2023-10-31T03:34:12;99705.19;;;9.96;100.00
72689;BME280;61053;52.166;4.506;2023-10-31T03:36:38;99710.25;;;9.99;100.00
72689;BME280;61053;52.166;4.506;2023-10-31T03:39:03;99707.06;;;10.05;100.00
72689;BME280;61053;52.166;4.506;2023-10-31T03:41:29;99713.16;;;10.17;100.00
72689;BME280;61053;52.166;4.506;2023-10-31T03:43:57;99713.72;;;10.20;100.00
72689;BME280;61053;52.166;4.506;2023-10-31T03:46:23;99723.84;;;10.17;100.00
72689;BME280;61053;52.166;4.506;2023-10-31T03:48:51;99721.13;;;10.07;100.00
72689;BME280;61053;52.166;4.506;2023-10-31T03:51:25;99723.25;;;10.13;100.00
72689;BME280;61053;52.166;4.506;2023-10-31T03:53:54;99718.50;;;10.17;100.00
72689;BME280;61053;52.166;4.506;2023-10-31T03:56:19;99713.88;;;10.19;100.00
72689;BME280;61053;52.166;4.506;2023-10-31T03:58:45;99715.97;;;10.15;100.00
72689;BME280;61053;52.166;4.506;2023-10-31T04:01:11;99724.41;;;10.20;100.00
72689;BME280;61053;52.166;4.506;2023-10-31T04:03:38;99729.63;;;10.22;100.00
72689;BME280;61053;52.166;4.506;2023-10-31T04:06:06;99738.69;;;10.09;100.00
72689;BME280;61053;52.166;4.506;2023-10-31T04:08:32;99739.66;;;10.08;100.00
72689;BME280;61053;52.166;4.506;2023-10-31T04:10:57;99738.94;;;10.06;100.00
72689;BME280;61053;52.166;4.506;2023-10-31T04:13:32;99739.03;;;9.95;100.00
72689;BME280;61053;52.166;4.506;2023-10-31T04:15:57;99743.16;;;9.88;100.00
72689;BME280;61053;52.166;4.506;2023-10-31T04:18:23;99740.84;;;9.94;100.00
72689;BME280;61053;52.166;4.506;2023-10-31T04:20:52;99740.72;;;9.96;100.00
72689;BME280;61053;52.166;4.506;2023-10-31T04:23:18;99738.72;;;9.88;100.00
72689;BME280;61053;52.166;4.506;2023-10-31T04:25:44;99746.16;;;9.94;100.00
72689;BME280;61053;52.166;4.506;2023-10-31T04:28:10;99746.44;;;9.91;100.00
72689;BME280;61053;52.166;4.506;2023-10-31T04:30:42;99739.09;;;9.84;100.00
72689;BME280;61053;52.166;4.506;2023-10-31T04:33:07;99751.56;;;10.04;100.00
72689;BME280;61053;52.166;4.506;2023-10-31T04:35:34;99750.19;;;10.10;100.00
72689;BME280;61053;52.166;4.506;2023-10-31T04:38:03;99754.41;;;10.12;100.00
72689;BME280;61053;52.166;4.506;2023-10-31T04:40:31;99763.66;;;10.08;100.00
72689;BME280;61053;52.166;4.506;2023-10-31T04:42:57;99769.00;;;10.08;100.00
72689;BME280;61053;52.166;4.506;2023-10-31T04:45:23;99764.22;;;10.02;100.00
72689;BME280;61053;52.166;4.506;2023-10-31T04:47:51;99772.38;;;10.10;100.00
72689;BME280;61053;52.166;4.506;2023-10-31T04:50:16;99771.72;;;9.97;100.00
72689;BME280;61053;52.166;4.506;2023-10-31T04:52:42;99777.34;;;9.94;100.00
72689;BME280;61053;52.166;4.506;2023-10-31T04:55:14;99783.91;;;9.90;100.00
72689;BME280;61053;52.166;4.506;2023-10-31T04:57:39;99784.28;;;9.85;100.00
72689;BME280;61053;52.166;4.506;2023-10-31T05:00:05;99776.22;;;9.76;100.00
72689;BME280;61053;52.166;4.506;2023-10-31T05:02:39;99787.81;;;9.86;100.00
72689;BME280;61053;52.166;4.506;2023-10-31T05:05:05;99794.19;;;9.94;100.00
72689;BME280;61053;52.166;4.506;2023-10-31T05:07:30;99794.19;;;9.94;100.00
72689;BME280;61053;52.166;4.506;2023-10-31T05:09:57;99793.84;;;9.88;100.00
72689;BME280;61053;52.166;4.506;2023-10-31T05:12:24;99790.28;;;9.99;100.00
72689;BME280;61053;52.166;4.506;2023-10-31T05:14:49;99793.78;;;9.99;100.00
72689;BME280;61053;52.166;4.506;2023-10-31T05:17:15;99800.44;;;10.05;100.00
72689;BME280;61053;52.166;4.506;2023-10-31T05:19:43;99791.50;;;10.15;100.00
72689;BME280;61053;52.166;4.506;2023-10-31T05:22:08;99797.09;;;10.12;100.00
72689;BME280;61053;52.166;4.506;2023-10-31T05:24:34;99813.91;;;10.03;100.00
72689;BME280;61053;52.166;4.506;2023-10-31T05:27:01;99804.13;;;10.13;100.00
72689;BME280;61053;52.166;4.506;2023-10-31T05:29:27;99805.91;;;10.03;100.00
72689;BME280;61053;52.166;4.506;2023-10-31T05:31:52;99805.63;;;10.06;100.00
72689;BME280;61053;52.166;4.506;2023-10-31T05:34:17;99807.19;;;10.09;100.00
72689;BME280;61053;52.166;4.506;2023-10-31T05:36:43;99811.34;;;10.02;100.00
72689;BME280;61053;52.166;4.506;2023-10-31T05:39:10;99810.66;;;10.00;100.00
72689;BME280;61053;52.166;4.506;2023-10-31T05:41:35;99814.75;;;10.04;100.00
72689;BME280;61053;52.166;4.506;2023-10-31T05:44:01;99814.63;;;10.05;100.00
72689;BME280;61053;52.166;4.506;2023-10-31T05:49:32;99822.41;;;9.97;100.00
72689;BME280;61053;52.166;4.506;2023-10-31T05:58:30;99830.63;;;10.05;100.00
72689;BME280;61053;52.166;4.506;2023-10-31T06:12:31;99843.91;;;10.17;100.00
72689;BME280;61053;52.166;4.506;2023-10-31T06:16:07;99855.91;;;10.11;100.00
72689;BME280;61053;52.166;4.506;2023-10-31T06:41:02;99873.63;;;10.12;100.00
72689;BME280;61053;52.166;4.506;2023-10-31T06:47:58;99873.97;;;10.19;100.00
72689;BME280;61053;52.166;4.506;2023-10-31T06:50:54;99875.13;;;10.05;100.00
72689;BME280;61053;52.166;4.506;2023-10-31T06:54:01;99886.25;;;10.10;100.00
72689;BME280;61053;52.166;4.506;2023-10-31T06:56:36;99890.09;;;10.17;100.00
72689;BME280;61053;52.166;4.506;2023-10-31T06:59:29;99890.50;;;10.12;100.00
72689;BME280;61053;52.166;4.506;2023-10-31T07:07:39;99902.34;;;10.20;100.00
72689;BME280;61053;52.166;4.506;2023-10-31T07:10:45;99905.72;;;10.22;100.00
72689;BME280;61053;52.166;4.506;2023-10-31T14:35:45;100219.56;;;11.55;100.00
72689;BME280;61053;52.166;4.506;2023-10-31T14:38:10;100212.16;;;11.68;100.00
72689;BME280;61053;52.166;4.506;2023-10-31T14:40:36;100217.13;;;11.52;100.00
72689;BME280;61053;52.166;4.506;2023-10-31T14:43:01;100213.38;;;11.54;100.00
72689;BME280;61053;52.166;4.506;2023-10-31T14:45:27;100222.09;;;11.56;100.00
72689;BME280;61053;52.166;4.506;2023-10-31T14:47:52;100226.47;;;11.57;100.00
72689;BME280;61053;52.166;4.506;2023-10-31T14:50:18;100221.63;;;11.51;100.00
72689;BME280;61053;52.166;4.506;2023-10-31T14:52:47;100224.50;;;11.38;100.00
72689;BME280;61053;52.166;4.506;2023-10-31T14:55:13;100221.75;;;11.29;100.00
72689;BME280;61053;52.166;4.506;2023-10-31T14:57:39;100215.94;;;11.45;100.00
72689;BME280;61053;52.166;4.506;2023-10-31T15:00:06;100231.94;;;11.56;100.00
72689;BME280;61053;52.166;4.506;2023-10-31T15:02:34;100231.53;;;11.39;100.00
72689;BME280;61053;52.166;4.506;2023-10-31T15:05:00;100223.13;;;11.44;100.00
72689;BME280;61053;52.166;4.506;2023-10-31T15:07:29;100228.81;;;11.51;100.00
72689;BME280;61053;52.166;4.506;2023-10-31T15:09:54;100230.38;;;11.53;100.00
72689;BME280;61053;52.166;4.506;2023-10-31T15:12:20;100226.88;;;11.74;100.00
72689;BME280;61053;52.166;4.506;2023-10-31T15:14:45;100227.91;;;11.61;100.00
72689;BME280;61053;52.166;4.506;2023-10-31T15:17:11;100232.88;;;11.66;100.00
72689;BME280;61053;52.166;4.506;2023-10-31T15:19:37;100235.59;;;11.55;100.00
72689;BME280;61053;52.166;4.506;2023-10-31T15:22:02;100228.47;;;11.44;100.00
72689;BME280;61053;52.166;4.506;2023-10-31T15:24:28;100242.75;;;11.33;100.00
72689;BME280;61053;52.166;4.506;2023-10-31T15:26:55;100233.63;;;11.36;100.00
72689;BME280;61053;52.166;4.506;2023-10-31T15:29:23;100233.97;;;11.43;100.00
72689;BME280;61053;52.166;4.506;2023-10-31T15:31:48;100242.63;;;11.56;100.00
72689;BME280;61053;52.166;4.506;2023-10-31T15:34:19;100232.72;;;11.47;100.00
72689;BME280;61053;52.166;4.506;2023-10-31T15:36:47;100245.25;;;11.46;100.00
72689;BME280;61053;52.166;4.506;2023-10-31T15:39:13;100236.88;;;11.39;100.00
72689;BME280;61053;52.166;4.506;2023-10-31T15:41:42;100243.25;;;11.27;100.00
72689;BME280;61053;52.166;4.506;2023-10-31T15:44:08;100236.53;;;11.33;100.00
72689;BME280;61053;52.166;4.506;2023-10-31T15:46:34;100241.38;;;11.39;100.00
72689;BME280;61053;52.166;4.506;2023-10-31T15:49:02;100245.31;;;11.24;100.00
72689;BME280;61053;52.166;4.506;2023-10-31T15:51:27;100247.41;;;11.20;100.00
72689;BME280;61053;52.166;4.506;2023-10-31T15:53:55;100247.31;;;11.22;100.00
72689;BME280;61053;52.166;4.506;2023-10-31T15:56:21;100243.03;;;11.19;100.00
72689;BME280;61053;52.166;4.506;2023-10-31T15:58:47;100249.00;;;11.23;100.00
72689;BME280;61053;52.166;4.506;2023-10-31T16:01:12;100251.69;;;11.11;100.00
72689;BME280;61053;52.166;4.506;2023-10-31T16:03:39;100252.81;;;11.09;100.00
72689;BME280;61053;52.166;4.506;2023-10-31T16:06:07;100266.22;;;11.30;100.00
72689;BME280;61053;52.166;4.506;2023-10-31T16:08:34;100269.66;;;11.20;100.00
72689;BME280;61053;52.166;4.506;2023-10-31T16:10:59;100265.13;;;11.32;100.00
72689;BME280;61053;52.166;4.506;2023-10-31T16:13:25;100257.56;;;11.37;100.00
72689;BME280;61053;52.166;4.506;2023-10-31T16:15:51;100262.31;;;11.34;100.00
72689;BME280;61053;52.166;4.506;2023-10-31T16:18:16;100259.81;;;11.21;100.00
72689;BME280;61053;52.166;4.506;2023-10-31T16:20:42;100263.56;;;11.18;100.00
72689;BME280;61053;52.166;4.506;2023-10-31T16:23:09;100254.63;;;11.08;100.00
72689;BME280;61053;52.166;4.506;2023-10-31T16:25:35;100263.13;;;11.13;100.00
72689;BME280;61053;52.166;4.506;2023-10-31T16:28:00;100261.31;;;11.03;100.00
72689;BME280;61053;52.166;4.506;2023-10-31T16:30:26;100261.91;;;11.06;100.00
72689;BME280;61053;52.166;4.506;2023-10-31T16:32:51;100251.97;;;10.97;100.00
72689;BME280;61053;52.166;4.506;2023-10-31T16:35:17;100257.44;;;10.95;100.00
72689;BME280;61053;52.166;4.506;2023-10-31T16:37:42;100258.63;;;11.03;100.00
72689;BME280;61053;52.166;4.506;2023-10-31T16:40:08;100256.50;;;10.96;100.00
72689;BME280;61053;52.166;4.506;2023-10-31T16:42:33;100253.94;;;10.84;100.00
72689;BME280;61053;52.166;4.506;2023-10-31T16:44:59;100254.09;;;10.82;100.00
72689;BME280;61053;52.166;4.506;2023-10-31T16:47:30;100264.97;;;11.02;100.00
72689;BME280;61053;52.166;4.506;2023-10-31T16:49:56;100277.88;;;10.85;100.00
72689;BME280;61053;52.166;4.506;2023-10-31T16:52:22;100269.22;;;10.93;100.00
72689;BME280;61053;52.166;4.506;2023-10-31T16:54:54;100272.41;;;10.98;100.00
72689;BME280;61053;52.166;4.506;2023-10-31T16:57:20;100266.44;;;10.94;100.00
72689;BME280;61053;52.166;4.506;2023-10-31T16:59:51;100273.25;;;10.98;100.00
72689;BME280;61053;52.166;4.506;2023-10-31T17:02:17;100278.97;;;10.94;100.00
72689;BME280;61053;52.166;4.506;2023-10-31T17:04:43;100280.00;;;11.03;100.00
72689;BME280;61053;52.166;4.506;2023-10-31T17:07:08;100274.66;;;11.03;100.00
72689;BME280;61053;52.166;4.506;2023-10-31T17:09:34;100272.22;;;11.11;100.00
72689;BME280;61053;52.166;4.506;2023-10-31T17:12:00;100272.78;;;10.93;100.00
72689;BME280;61053;52.166;4.506;2023-10-31T17:14:32;100280.53;;;10.96;100.00
72689;BME280;61053;52.166;4.506;2023-10-31T17:16:58;100287.34;;;11.01;100.00
72689;BME280;61053;52.166;4.506;2023-10-31T17:19:23;100285.16;;;10.94;100.00
72689;BME280;61053;52.166;4.506;2023-10-31T17:21:49;100283.56;;;10.92;100.00
72689;BME280;61053;52.166;4.506;2023-10-31T17:24:16;100285.63;;;10.99;100.00
72689;BME280;61053;52.166;4.506;2023-10-31T17:26:43;100277.97;;;10.95;100.00
72689;BME280;61053;52.166;4.506;2023-10-31T17:29:09;100272.25;;;10.99;100.00
72689;BME280;61053;52.166;4.506;2023-10-31T17:31:38;100280.97;;;11.13;100.00
72689;BME280;61053;52.166;4.506;2023-10-31T17:34:05;100277.13;;;11.06;100.00
72689;BME280;61053;52.166;4.506;2023-10-31T17:36:30;100286.72;;;10.97;100.00
72689;BME280;61053;52.166;4.506;2023-10-31T17:38:59;100292.78;;;10.99;100.00
72689;BME280;61053;52.166;4.506;2023-10-31T17:41:25;100291.84;;;10.89;100.00
72689;BME280;61053;52.166;4.506;2023-10-31T17:43:53;100293.16;;;10.94;100.00
72689;BME280;61053;52.166;4.506;2023-10-31T17:46:19;100292.53;;;11.02;100.00
72689;BME280;61053;52.166;4.506;2023-10-31T17:48:45;100290.00;;;11.01;100.00
72689;BME280;61053;52.166;4.506;2023-10-31T17:51:10;100291.72;;;10.79;100.00
72689;BME280;61053;52.166;4.506;2023-10-31T17:53:37;100279.97;;;10.82;100.00
72689;BME280;61053;52.166;4.506;2023-10-31T17:56:05;100286.59;;;10.98;100.00
72689;BME280;61053;52.166;4.506;2023-10-31T17:58:32;100287.81;;;11.06;100.00
72689;BME280;61053;52.166;4.506;2023-10-31T18:00:58;100286.22;;;11.14;100.00
72689;BME280;61053;52.166;4.506;2023-10-31T18:03:23;100278.31;;;11.02;100.00
72689;BME280;61053;52.166;4.506;2023-10-31T18:05:49;100280.25;;;11.11;100.00
72689;BME280;61053;52.166;4.506;2023-10-31T18:08:14;100280.41;;;10.98;100.00
72689;BME280;61053;52.166;4.506;2023-10-31T18:10:40;100285.41;;;10.91;100.00
72689;BME280;61053;52.166;4.506;2023-10-31T18:13:09;100281.16;;;10.89;100.00
72689;BME280;61053;52.166;4.506;2023-10-31T18:15:37;100273.63;;;10.83;100.00
72689;BME280;61053;52.166;4.506;2023-10-31T18:18:03;100252.16;;;10.84;100.00
72689;BME280;61053;52.166;4.506;2023-10-31T18:20:29;100257.31;;;10.97;100.00
72689;BME280;61053;52.166;4.506;2023-10-31T18:22:54;100254.53;;;10.98;100.00
72689;BME280;61053;52.166;4.506;2023-10-31T18:25:20;100259.16;;;10.96;100.00
72689;BME280;61053;52.166;4.506;2023-10-31T18:27:45;100259.25;;;11.06;100.00
72689;BME280;61053;52.166;4.506;2023-10-31T18:30:12;100269.13;;;10.94;100.00
72689;BME280;61053;52.166;4.506;2023-10-31T18:32:40;100267.19;;;10.96;100.00
72689;BME280;61053;52.166;4.506;2023-10-31T18:35:05;100268.38;;;10.92;100.00
72689;BME280;61053;52.166;4.506;2023-10-31T18:37:31;100260.75;;;10.88;100.00
72689;BME280;61053;52.166;4.506;2023-10-31T18:40:00;100267.91;;;10.98;100.00
72689;BME280;61053;52.166;4.506;2023-10-31T18:42:28;100267.75;;;11.00;100.00
72689;BME280;61053;52.166;4.506;2023-10-31T18:44:54;100259.94;;;11.19;100.00
72689;BME280;61053;52.166;4.506;2023-10-31T18:47:20;100258.00;;;11.22;100.00
72689;BME280;61053;52.166;4.506;2023-10-31T18:49:46;100257.19;;;11.10;100.00
72689;BME280;61053;52.166;4.506;2023-10-31T18:52:14;100256.75;;;11.26;100.00
72689;BME280;61053;52.166;4.506;2023-10-31T18:54:39;100261.16;;;11.15;100.00
72689;BME280;61053;52.166;4.506;2023-10-31T18:57:05;100260.81;;;11.09;100.00
72689;BME280;61053;52.166;4.506;2023-10-31T18:59:31;100261.06;;;11.17;100.00
72689;BME280;61053;52.166;4.506;2023-10-31T19:01:57;100252.69;;;11.10;100.00
72689;BME280;61053;52.166;4.506;2023-10-31T19:04:26;100241.47;;;11.16;100.00
72689;BME280;61053;52.166;4.506;2023-10-31T19:06:53;100220.34;;;11.13;100.00
72689;BME280;61053;52.166;4.506;2023-10-31T19:09:19;100221.72;;;11.08;100.00
72689;BME280;61053;52.166;4.506;2023-10-31T19:11:47;100217.22;;;11.08;100.00
72689;BME280;61053;52.166;4.506;2023-10-31T19:14:12;100208.34;;;11.08;100.00
72689;BME280;61053;52.166;4.506;2023-10-31T19:16:38;100222.56;;;11.08;100.00
72689;BME280;61053;52.166;4.506;2023-10-31T19:19:04;100219.44;;;11.03;100.00
72689;BME280;61053;52.166;4.506;2023-10-31T19:21:29;100228.41;;;11.02;100.00
72689;BME280;61053;52.166;4.506;2023-10-31T19:23:55;100243.22;;;11.06;100.00
72689;BME280;61053;52.166;4.506;2023-10-31T19:26:20;100238.97;;;11.04;100.00
72689;BME280;61053;52.166;4.506;2023-10-31T19:28:45;100226.09;;;10.97;100.00
72689;BME280;61053;52.166;4.506;2023-10-31T19:31:11;100212.16;;;10.94;100.00
72689;BME280;61053;52.166;4.506;2023-10-31T19:33:36;100220.19;;;10.94;100.00
72689;BME280;61053;52.166;4.506;2023-10-31T19:36:02;100221.88;;;10.95;100.00
72689;BME280;61053;52.166;4.506;2023-10-31T19:38:29;100214.75;;;10.84;100.00
72689;BME280;61053;52.166;4.506;2023-10-31T19:40:54;100214.13;;;10.81;100.00
72689;BME280;61053;52.166;4.506;2023-10-31T19:43:20;100219.75;;;10.77;100.00
72689;BME280;61053;52.166;4.506;2023-10-31T19:45:45;100208.44;;;10.74;100.00
72689;BME280;61053;52.166;4.506;2023-10-31T19:48:12;100215.50;;;10.75;100.00
72689;BME280;61053;52.166;4.506;2023-10-31T19:50:38;100212.09;;;10.73;100.00
72689;BME280;61053;52.166;4.506;2023-10-31T19:53:04;100212.81;;;10.75;100.00
72689;BME280;61053;52.166;4.506;2023-10-31T19:55:29;100222.91;;;10.60;100.00
72689;BME280;61053;52.166;4.506;2023-10-31T19:57:56;100224.16;;;10.56;100.00
72689;BME280;61053;52.166;4.506;2023-10-31T20:00:22;100232.16;;;10.56;100.00
72689;BME280;61053;52.166;4.506;2023-10-31T20:02:50;100232.28;;;10.54;100.00
72689;BME280;61053;52.166;4.506;2023-10-31T20:05:16;100245.38;;;10.57;100.00
72689;BME280;61053;52.166;4.506;2023-10-31T20:07:54;100236.41;;;10.47;100.00
72689;BME280;61053;52.166;4.506;2023-10-31T20:10:26;100242.47;;;10.49;100.00
72689;BME280;61053;52.166;4.506;2023-10-31T20:12:58;100238.50;;;10.32;100.00
72689;BME280;61053;52.166;4.506;2023-10-31T20:15:23;100244.16;;;10.28;100.00
72689;BME280;61053;52.166;4.506;2023-10-31T20:20:26;100244.28;;;10.26;100.00
72689;BME280;61053;52.166;4.506;2023-10-31T20:28:26;100223.69;;;10.40;100.00
72689;BME280;61053;52.166;4.506;2023-10-31T20:30:55;100232.66;;;10.39;100.00
72689;BME280;61053;52.166;4.506;2023-10-31T20:46:57;100225.00;;;10.56;100.00
72689;BME280;61053;52.166;4.506;2023-10-31T20:50:03;100224.75;;;10.48;100.00
72689;BME280;61053;52.166;4.506;2023-10-31T20:52:53;100237.38;;;10.46;100.00
72689;BME280;61053;52.166;4.506;2023-10-31T21:13:14;100216.97;;;10.56;100.00
72689;BME280;61053;52.166;4.506;2023-10-31T21:50:28;100245.00;;;10.51;100.00
72689;BME280;61053;52.166;4.506;2023-10-31T21:52:53;100235.09;;;10.30;100.00
72689;BME280;61053;52.166;4.506;2023-10-31T22:00:17;100240.13;;;10.22;100.00
72689;BME280;61053;52.166;4.506;2023-10-31T22:02:43;100236.16;;;10.28;100.00
72689;BME280;61053;52.166;4.506;2023-10-31T22:07:37;100228.50;;;10.23;100.00
72689;BME280;61053;52.166;4.506;2023-10-31T22:10:11;100226.94;;;10.32;100.00
72689;BME280;61053;52.166;4.506;2023-10-31T22:17:48;100232.03;;;10.46;100.00
72689;BME280;61053;52.166;4.506;2023-10-31T22:22:49;100238.72;;;10.41;100.00
72689;BME280;61053;52.166;4.506;2023-10-31T22:25:14;100235.69;;;10.45;100.00
72689;BME280;61053;52.166;4.506;2023-10-31T22:27:40;100231.69;;;10.40;100.00
72689;BME280;61053;52.166;4.506;2023-10-31T22:32:37;100225.84;;;10.34;100.00
72689;BME280;61053;52.166;4.506;2023-10-31T22:35:08;100222.69;;;10.41;100.00